Time;durP1;ratioP1;P1;durP2;ratioP2;P2;SDS_P1;SDS_P2;PMS_P1;PMS_P2;Temp;Humidity;BMP_temperature;BMP_pressure;BME280_temperature;BME280_humidity;BME280_pressure;Samples;Min_cycle;Max_cycle;Signal;HPM_P1;HPM_P2
2022/03/25 01:30:56;;;;;;;;;;;;;;;5.78;100.00;103175.56;5635050;23;20000;-70
2022/03/25 01:33:22;;;;;;;;;;;;;;;5.79;100.00;103176.47;4998061;28;20373;-68
2022/03/25 01:35:47;;;;;;;;;;;;;;;5.77;100.00;103172.91;4993988;28;19923;-68
2022/03/25 01:38:13;;;;;;;;;;;;;;;5.72;100.00;103175.50;4988558;28;19921;-68
2022/03/25 01:40:38;;;;;;;;;;;;;;;5.68;100.00;103171.06;4997099;28;19918;-69
2022/03/25 01:43:05;;;;;;;;;;;;;;;5.68;100.00;103172.78;4997035;28;19925;-69
2022/03/25 01:45:32;;;;;;;;;;;;;;;5.63;100.00;103179.75;5014434;28;19928;-69
2022/03/25 01:47:57;;;;;;;;;;;;;;;5.56;100.00;103170.00;4982627;28;19925;-69
2022/03/25 01:50:22;;;;;;;;;;;;;;;5.53;100.00;103177.84;4994738;28;19921;-69
2022/03/25 01:52:49;;;;;;;;;;;;;;;5.48;100.00;103176.91;5006497;28;19917;-69
2022/03/25 01:55:16;;;;;;;;;;;;;;;5.43;100.00;103179.47;5014154;28;19992;-69
2022/03/25 01:57:42;;;;;;;;;;;;;;;5.41;100.00;103181.19;5014487;28;19917;-69
2022/03/25 02:00:09;;;;;;;;;;;;;;;5.40;100.00;103189.97;4996918;28;19918;-69
2022/03/25 02:02:36;;;;;;;;;;;;;;;5.41;100.00;103186.44;5014572;28;19922;-69
2022/03/25 02:05:01;;;;;;;;;;;;;;;5.34;100.00;103181.94;4993200;28;19924;-69
2022/03/25 02:07:27;;;;;;;;;;;;;;;5.35;100.00;103193.38;4988406;28;20297;-69
2022/03/25 02:09:52;;;;;;;;;;;;;;;5.30;100.00;103189.75;5017561;28;19929;-69
2022/03/25 02:12:17;;;;;;;;;;;;;;;5.22;100.00;103187.00;4999454;28;19917;-69
2022/03/25 02:14:42;;;;;;;;;;;;;;;5.17;100.00;103191.31;5000735;28;19918;-69
2022/03/25 02:17:07;;;;;;;;;;;;;;;5.15;100.00;103187.78;4998711;28;20290;-69
2022/03/25 02:19:33;;;;;;;;;;;;;;;5.10;100.00;103188.56;5015073;28;19917;-69
2022/03/25 02:21:58;;;;;;;;;;;;;;;5.09;100.00;103177.13;5014829;28;19926;-69
2022/03/25 02:24:23;;;;;;;;;;;;;;;5.10;100.00;103176.28;4996804;28;19921;-70
2022/03/25 02:26:48;;;;;;;;;;;;;;;5.09;100.00;103161.31;5013227;28;19956;-68
2022/03/25 02:29:16;;;;;;;;;;;;;;;5.04;100.00;103151.59;5014375;28;19917;-69
2022/03/25 02:31:42;;;;;;;;;;;;;;;4.95;100.00;103154.06;4977150;28;19926;-69
2022/03/25 02:34:08;;;;;;;;;;;;;;;4.95;100.00;103151.44;4994439;28;19925;-69
2022/03/25 02:36:41;;;;;;;;;;;;;;;4.92;100.00;103148.75;4994170;28;19925;-69
2022/03/25 02:39:07;;;;;;;;;;;;;;;4.84;100.00;103156.50;4983468;28;20306;-69
2022/03/25 02:41:32;;;;;;;;;;;;;;;4.84;100.00;103156.50;4974766;28;19937;-69
2022/03/25 02:43:59;;;;;;;;;;;;;;;4.80;100.00;103146.78;4973167;28;19918;-69
2022/03/25 02:46:24;;;;;;;;;;;;;;;4.82;100.00;103152.97;4973208;28;19941;-69
2022/03/25 02:48:49;;;;;;;;;;;;;;;4.79;100.00;103146.78;4974670;28;20383;-69
2022/03/25 02:51:14;;;;;;;;;;;;;;;4.75;100.00;103153.72;4975939;28;20394;-69
2022/03/25 02:53:39;;;;;;;;;;;;;;;4.73;100.00;103150.16;4991354;28;19953;-69
2022/03/25 02:56:05;;;;;;;;;;;;;;;4.69;100.00;103149.25;4992965;28;19922;-69
2022/03/25 02:58:30;;;;;;;;;;;;;;;4.71;100.00;103149.28;4992894;28;19925;-69
2022/03/25 03:00:55;;;;;;;;;;;;;;;4.75;100.00;103143.19;4976154;28;19929;-69
2022/03/25 03:03:21;;;;;;;;;;;;;;;5.06;100.00;103148.09;4993665;28;20280;-69
2022/03/25 03:05:46;;;;;;;;;;;;;;;5.14;100.00;103138.59;4992622;28;20271;-69
2022/03/25 03:08:13;;;;;;;;;;;;;;;5.14;100.00;103143.84;4993988;28;20008;-69
2022/03/25 03:10:38;;;;;;;;;;;;;;;5.06;100.00;103142.84;4994149;28;20385;-69
2022/03/25 03:13:04;;;;;;;;;;;;;;;5.02;100.00;103148.03;4992642;28;19917;-69
2022/03/25 03:15:29;;;;;;;;;;;;;;;4.96;100.00;103140.94;4993475;28;19918;-69
2022/03/25 03:17:54;;;;;;;;;;;;;;;4.89;100.00;103149.56;4992237;28;19918;-69
2022/03/25 03:20:20;;;;;;;;;;;;;;;4.83;100.00;103152.09;4993793;28;20297;-70
2022/03/25 03:22:45;;;;;;;;;;;;;;;4.76;100.00;103147.59;4976642;28;19921;-69
2022/03/25 03:25:11;;;;;;;;;;;;;;;4.68;100.00;103155.34;4993781;28;19918;-69
2022/03/25 03:27:40;;;;;;;;;;;;;;;4.64;100.00;103158.81;4992587;28;19964;-69
2022/03/25 03:30:07;;;;;;;;;;;;;;;4.60;100.00;103161.34;4959891;28;19926;-69
2022/03/25 03:32:32;;;;;;;;;;;;;;;4.57;100.00;103154.25;4978777;28;19980;-69
2022/03/25 03:34:58;;;;;;;;;;;;;;;4.48;100.00;103158.47;5498096;23;19930;-70
2022/03/25 03:37:24;;;;;;;;;;;;;;;4.45;100.00;103158.41;4975576;28;20235;-69
2022/03/25 03:39:50;;;;;;;;;;;;;;;4.39;100.00;103163.56;4977633;28;20518;-70
2022/03/25 03:42:15;;;;;;;;;;;;;;;4.39;100.00;103167.09;4977656;28;19925;-70
2022/03/25 03:44:40;;;;;;;;;;;;;;;4.37;100.00;103155.66;4977365;28;19977;-70
2022/03/25 03:47:07;;;;;;;;;;;;;;;4.35;100.00;103161.72;4977419;28;19918;-70
2022/03/25 03:49:32;;;;;;;;;;;;;;;4.29;100.00;103153.72;4977044;28;19922;-70
2022/03/25 03:51:57;;;;;;;;;;;;;;;4.25;100.00;103160.69;4977162;28;20286;-70
2022/03/25 03:54:23;;;;;;;;;;;;;;;4.28;100.00;103170.34;4959514;28;20383;-70
2022/03/25 03:56:48;;;;;;;;;;;;;;;4.27;100.00;103171.22;4977012;28;19922;-70
2022/03/25 03:59:13;;;;;;;;;;;;;;;4.21;100.00;103177.22;4977377;28;19925;-69
2022/03/25 04:01:40;;;;;;;;;;;;;;;4.19;100.00;103185.97;4976511;28;20398;-69
2022/03/25 04:04:06;;;;;;;;;;;;;;;4.16;100.00;103192.03;4977348;28;20013;-69
2022/03/25 04:06:31;;;;;;;;;;;;;;;4.14;100.00;103196.38;4976829;28;19924;-69
2022/03/25 04:08:57;;;;;;;;;;;;;;;4.10;100.00;103196.25;4976992;28;20371;-70
2022/03/25 04:11:22;;;;;;;;;;;;;;;4.05;100.00;103197.94;4977052;28;19930;-70
2022/03/25 04:13:47;;;;;;;;;;;;;;;4.05;100.00;103209.31;4976708;28;19973;-70
2022/03/25 04:16:12;;;;;;;;;;;;;;;4.03;100.00;103211.06;4976916;28;19925;-69
2022/03/25 04:18:38;;;;;;;;;;;;;;;4.08;100.00;103214.63;4976703;28;19953;-70
2022/03/25 04:21:03;;;;;;;;;;;;;;;4.06;100.00;103219.00;4976933;28;20009;-70
2022/03/25 04:23:29;;;;;;;;;;;;;;;4.01;100.00;103225.00;4976469;28;20259;-69
2022/03/25 04:25:54;;;;;;;;;;;;;;;3.99;100.00;103227.59;4976801;28;20383;-69
2022/03/25 04:28:19;;;;;;;;;;;;;;;3.98;100.00;103230.19;4959144;28;19977;-69
2022/03/25 04:30:44;;;;;;;;;;;;;;;4.03;100.00;103236.44;4959675;28;19941;-69
2022/03/25 04:33:10;;;;;;;;;;;;;;;3.97;100.00;103241.56;4960149;28;20283;-69
2022/03/25 04:35:35;;;;;;;;;;;;;;;3.92;100.00;103238.84;4978369;28;20270;-69
2022/03/25 04:38:01;;;;;;;;;;;;;;;3.87;100.00;103244.84;4979156;28;19922;-70
2022/03/25 04:40:28;;;;;;;;;;;;;;;3.83;100.00;103253.53;4978983;28;19925;-70
2022/03/25 04:42:53;;;;;;;;;;;;;;;3.80;100.00;103248.19;4966114;28;19922;-69
2022/03/25 04:45:19;;;;;;;;;;;;;;;3.80;100.00;103254.31;4975234;28;19937;-69
2022/03/25 04:47:45;;;;;;;;;;;;;;;3.72;100.00;103260.28;4976582;28;19922;-70
2022/03/25 04:50:10;;;;;;;;;;;;;;;3.65;100.00;103260.97;4976183;28;19926;-69
2022/03/25 04:52:35;;;;;;;;;;;;;;;3.63;100.00;103260.91;4976516;28;20012;-69
2022/03/25 04:55:02;;;;;;;;;;;;;;;3.59;100.00;103264.34;4976191;28;20021;-70
2022/03/25 04:57:28;;;;;;;;;;;;;;;3.59;100.00;103268.69;4975575;28;19929;-70
2022/03/25 04:59:53;;;;;;;;;;;;;;;3.56;100.00;103271.25;4976129;28;19926;-69
2022/03/25 05:02:18;;;;;;;;;;;;;;;3.56;100.00;103266.88;4958808;28;19926;-69
2022/03/25 05:04:43;;;;;;;;;;;;;;;3.54;100.00;103276.47;4976092;28;19918;-70
2022/03/25 05:07:15;;;;;;;;;;;;;;;3.53;100.00;103268.56;4975933;28;19922;-70
2022/03/25 05:09:41;;;;;;;;;;;;;;;3.61;100.00;103270.50;4959151;28;20314;-70
2022/03/25 05:12:06;;;;;;;;;;;;;;;3.60;100.00;103280.97;4967049;28;19918;-70
2022/03/25 05:14:34;;;;;;;;;;;;;;;3.51;100.00;103281.66;4956702;29;19956;-69
2022/03/25 05:16:59;;;;;;;;;;;;;;;3.45;100.00;103280.63;4956776;29;19918;-70
2022/03/25 05:19:24;;;;;;;;;;;;;;;3.53;100.00;103287.81;4939984;29;20375;-72
2022/03/25 05:21:49;;;;;;;;;;;;;;;3.55;100.00;103291.38;4939319;29;19929;-70
2022/03/25 05:24:14;;;;;;;;;;;;;;;3.48;100.00;103296.44;4939054;29;19918;-70
2022/03/25 05:26:40;;;;;;;;;;;;;;;3.53;100.00;103294.81;4962420;28;19937;-69
2022/03/25 05:29:06;;;;;;;;;;;;;;;3.47;100.00;103300.81;4945717;28;19923;-69
2022/03/25 05:31:31;;;;;;;;;;;;;;;3.44;100.00;103303.34;4934420;29;19919;-69
2022/03/25 05:33:56;;;;;;;;;;;;;;;3.42;100.00;103310.28;4923108;29;19966;-70
2022/03/25 05:36:22;;;;;;;;;;;;;;;3.39;100.00;103317.22;4937944;29;20459;-71
2022/03/25 05:38:47;;;;;;;;;;;;;;;3.40;100.00;103314.66;4952548;28;19922;-72
2022/03/25 05:41:12;;;;;;;;;;;;;;;3.37;100.00;103321.56;4938821;29;20291;-72
2022/03/25 05:43:37;;;;;;;;;;;;;;;3.39;100.00;103317.22;4938976;29;19925;-72
2022/03/25 05:46:03;;;;;;;;;;;;;;;3.40;100.00;103325.16;4938868;29;19919;-72
2022/03/25 05:48:29;;;;;;;;;;;;;;;3.39;100.00;103330.38;4936032;29;20350;-70
2022/03/25 05:50:54;;;;;;;;;;;;;;;3.42;100.00;103335.69;4935435;29;20017;-71
2022/03/25 05:53:19;;;;;;;;;;;;;;;3.48;100.00;103323.63;4948967;28;19928;-72
2022/03/25 05:55:45;;;;;;;;;;;;;;;3.50;100.00;103326.28;4957339;28;19926;-70
2022/03/25 05:58:10;;;;;;;;;;;;;;;3.54;100.00;103330.75;4957652;28;19954;-71
2022/03/25 06:00:36;;;;;;;;;;;;;;;3.63;100.00;103336.22;4973651;28;19954;-71
2022/03/25 06:03:01;;;;;;;;;;;;;;;3.72;100.00;103332.09;4957608;28;19922;-72
2022/03/25 06:05:27;;;;;;;;;;;;;;;3.69;100.00;103331.16;4974925;28;19922;-72
2022/03/25 06:07:52;;;;;;;;;;;;;;;3.65;100.00;103335.44;4974994;28;19918;-72
2022/03/25 06:10:17;;;;;;;;;;;;;;;3.67;100.00;103333.72;4974864;28;19919;-72
2022/03/25 06:12:42;;;;;;;;;;;;;;;3.66;100.00;103338.94;4952679;28;19922;-72
2022/03/25 06:15:08;;;;;;;;;;;;;;;3.74;100.00;103337.38;4938175;28;19946;-73
2022/03/25 06:17:40;;;;;;;;;;;;;;;3.71;100.00;103338.22;4948450;28;19930;-71
2022/03/25 06:20:07;;;;;;;;;;;;;;;3.84;100.00;103339.41;4949596;28;19930;-70
2022/03/25 06:22:33;;;;;;;;;;;;;;;3.83;100.00;103337.63;4959017;28;20014;-71
2022/03/25 06:24:58;;;;;;;;;;;;;;;3.88;100.00;103341.25;4958586;28;19958;-71
2022/03/25 06:27:24;;;;;;;;;;;;;;;4.03;100.00;103349.50;4975533;28;20328;-70
2022/03/25 06:29:49;;;;;;;;;;;;;;;4.07;100.00;103362.75;4975132;28;19925;-69
2022/03/25 06:32:14;;;;;;;;;;;;;;;4.16;100.00;103364.75;4957982;28;19945;-69
2022/03/25 06:34:39;;;;;;;;;;;;;;;4.19;100.00;103364.81;4937529;29;20306;-69
2022/03/25 06:37:05;;;;;;;;;;;;;;;4.25;100.00;103368.47;4956255;28;19950;-69
2022/03/25 06:39:31;;;;;;;;;;;;;;;4.33;100.00;103369.50;4937841;29;19946;-68
2022/03/25 06:41:56;;;;;;;;;;;;;;;4.36;100.00;103384.50;4937639;28;19958;-70
2022/03/25 06:44:21;;;;;;;;;;;;;;;4.41;100.00;103378.47;4958417;28;19923;-70
2022/03/25 06:46:46;;;;;;;;;;;;;;;4.54;100.00;103377.91;4946267;28;19918;-69
2022/03/25 06:49:12;;;;;;;;;;;;;;;4.54;100.00;103391.06;4974683;28;19914;-70
2022/03/25 06:51:37;;;;;;;;;;;;;;;4.69;100.00;103386.16;4957639;28;19926;-69
2022/03/25 06:54:02;;;;;;;;;;;;;;;4.67;100.00;103386.94;4974856;28;19940;-69
2022/03/25 06:56:28;;;;;;;;;;;;;;;4.71;100.00;103396.72;4942988;29;20418;-70
2022/03/25 06:58:53;;;;;;;;;;;;;;;4.79;100.00;103388.97;4961890;28;19946;-69
2022/03/25 07:01:18;;;;;;;;;;;;;;;4.86;100.00;103389.13;4937949;29;19922;-69
2022/03/25 07:03:44;;;;;;;;;;;;;;;5.03;100.00;103392.97;4938015;29;19923;-69
2022/03/25 07:06:09;;;;;;;;;;;;;;;5.03;100.00;103398.25;4960053;28;19922;-70
2022/03/25 07:08:35;;;;;;;;;;;;;;;5.33;100.00;103406.78;4973834;28;20279;-69
2022/03/25 07:11:00;;;;;;;;;;;;;;;5.33;100.00;103401.50;4977029;28;20118;-70
2022/03/25 07:13:26;;;;;;;;;;;;;;;5.26;100.00;103404.00;4960988;28;19922;-69
2022/03/25 07:15:51;;;;;;;;;;;;;;;5.38;100.00;103399.84;4951270;29;19926;-70
2022/03/25 07:18:16;;;;;;;;;;;;;;;5.45;100.00;103409.63;4943850;29;19918;-72
2022/03/25 07:21:02;;;;;;;;;;;;;;;5.57;100.00;103398.44;4946841;29;19925;-69
2022/03/25 07:23:27;;;;;;;;;;;;;;;5.66;100.00;103393.31;4941528;29;19946;-70
2022/03/25 07:25:53;;;;;;;;;;;;;;;5.76;100.00;103393.53;4949800;28;20013;-69
2022/03/25 07:28:18;;;;;;;;;;;;;;;5.90;100.00;103381.50;4962700;28;20013;-70
2022/03/25 07:30:43;;;;;;;;;;;;;;;5.87;100.00;103384.09;4957715;28;19923;-69
2022/03/25 07:33:08;;;;;;;;;;;;;;;5.98;100.00;103364.06;4957862;28;19930;-70
2022/03/25 07:35:33;;;;;;;;;;;;;;;5.98;100.00;103363.16;4945081;29;20363;-70
2022/03/25 07:37:58;;;;;;;;;;;;;;;6.14;100.00;103360.81;4941687;28;19925;-69
2022/03/25 07:40:24;;;;;;;;;;;;;;;6.14;100.00;103352.00;4964014;28;19918;-70
2022/03/25 07:42:49;;;;;;;;;;;;;;;6.31;100.00;103344.31;4957170;28;19954;-72
2022/03/25 07:45:15;;;;;;;;;;;;;;;6.33;100.00;103337.31;4964690;28;19918;-71
2022/03/25 07:47:41;;;;;;;;;;;;;;;6.55;100.00;103342.03;4952396;29;19929;-71
2022/03/25 07:50:08;;;;;;;;;;;;;;;6.65;100.00;103336.00;4958023;28;19930;-72
2022/03/25 07:52:33;;;;;;;;;;;;;;;6.66;100.00;103335.13;4927078;29;20018;-70
2022/03/25 07:54:58;;;;;;;;;;;;;;;6.79;100.00;103335.28;4940132;28;20421;-69
2022/03/25 07:57:24;;;;;;;;;;;;;;;6.93;100.00;103328.44;4940868;28;19923;-71
2022/03/25 07:59:49;;;;;;;;;;;;;;;7.11;100.00;103328.66;4961008;28;19998;-70
2022/03/25 08:02:14;;;;;;;;;;;;;;;7.21;100.00;103322.59;4976648;28;19919;-71
2022/03/25 08:04:40;;;;;;;;;;;;;;;7.26;100.00;103314.72;4954953;28;20015;-69
2022/03/25 08:07:05;;;;;;;;;;;;;;;7.50;100.00;103314.97;4974393;28;19926;-69
2022/03/25 08:09:30;;;;;;;;;;;;;;;7.68;100.00;103308.06;4976909;28;19936;-69
2022/03/25 08:11:55;;;;;;;;;;;;;;;7.63;100.00;103293.00;4976841;28;19918;-69
2022/03/25 08:14:21;;;;;;;;;;;;;;;7.60;100.00;103293.88;4963925;28;19923;-69
2022/03/25 08:16:47;;;;;;;;;;;;;;;7.75;100.00;103294.00;4957509;28;19922;-69
2022/03/25 08:19:12;;;;;;;;;;;;;;;7.89;100.00;103286.19;4942190;28;20288;-70
2022/03/25 08:21:38;;;;;;;;;;;;;;;8.06;100.00;103287.19;4957245;29;19926;-69
2022/03/25 08:29:31;;;;;;;;;;;;;;;8.22;100.00;103290.78;4955980;29;19966;-70
2022/03/25 08:31:56;;;;;;;;;;;;;;;8.37;100.00;103293.56;4956254;28;19934;-70
2022/03/25 08:34:21;;;;;;;;;;;;;;;8.53;100.00;103288.34;4973496;28;19926;-72
2022/03/25 08:36:48;;;;;;;;;;;;;;;8.50;100.00;103279.50;4942883;28;19923;-70
2022/03/25 08:39:14;;;;;;;;;;;;;;;8.64;100.00;103275.13;4942481;29;19918;-70
2022/03/25 08:41:39;;;;;;;;;;;;;;;8.55;100.00;103275.13;4968744;28;19929;-70
2022/03/25 08:44:04;;;;;;;;;;;;;;;8.85;100.00;103273.47;4955779;28;19923;-69
2022/03/25 08:46:30;;;;;;;;;;;;;;;8.93;100.00;103263.78;4944633;29;19943;-70
2022/03/25 08:48:55;;;;;;;;;;;;;;;9.13;100.00;103263.81;4937443;29;19961;-70
2022/03/25 08:51:20;;;;;;;;;;;;;;;9.30;100.00;103256.75;4938654;28;19918;-70
2022/03/25 08:53:46;;;;;;;;;;;;;;;9.34;100.00;103254.09;4942052;28;20072;-69
2022/03/25 08:56:12;;;;;;;;;;;;;;;9.29;100.00;103253.25;4924063;28;19929;-70
2022/03/25 08:58:38;;;;;;;;;;;;;;;9.42;100.00;103247.94;4968710;28;19926;-69
2022/03/25 09:01:03;;;;;;;;;;;;;;;9.73;100.00;103247.91;4965547;28;19946;-70
2022/03/25 09:03:28;;;;;;;;;;;;;;;9.82;100.00;103252.31;4938012;28;20488;-69
2022/03/25 09:05:53;;;;;;;;;;;;;;;9.99;100.00;103247.88;4936361;29;19923;-70
2022/03/25 09:08:19;;;;;;;;;;;;;;;10.57;100.00;103242.38;4956811;28;19970;-70
2022/03/25 09:10:44;;;;;;;;;;;;;;;11.00;100.00;103237.72;4956457;29;19925;-69
2022/03/25 09:13:11;;;;;;;;;;;;;;;11.67;100.00;103233.69;4956099;28;19957;-70
2022/03/25 09:15:36;;;;;;;;;;;;;;;11.79;100.00;103235.31;4956477;29;20435;-70
2022/03/25 09:18:01;;;;;;;;;;;;;;;12.70;100.00;103229.84;4954410;28;19919;-70
2022/03/25 09:20:26;;;;;;;;;;;;;;;12.68;100.00;103224.53;4921792;28;19930;-70
2022/03/25 09:22:54;;;;;;;;;;;;;;;12.84;100.00;103222.53;4971009;28;19922;-70
2022/03/25 09:25:19;;;;;;;;;;;;;;;14.14;100.00;103226.53;4969627;28;19926;-70
2022/03/25 09:27:44;;;;;;;;;;;;;;;12.93;100.00;103225.94;4976073;28;19925;-70
2022/03/25 09:30:10;;;;;;;;;;;;;;;13.08;100.00;103233.72;4975618;28;20009;-70
2022/03/25 09:32:35;;;;;;;;;;;;;;;12.95;100.00;103233.91;4965764;28;19918;-70
2022/03/25 09:35:09;;;;;;;;;;;;;;;13.11;100.00;103239.03;4955847;28;20021;-69
2022/03/25 09:37:42;;;;;;;;;;;;;;;13.96;100.00;103246.50;4958249;28;20013;-70
2022/03/25 09:40:12;;;;;;;;;;;;;;;14.12;100.00;103241.75;4931320;29;20046;-70
2022/03/25 09:42:38;;;;;;;;;;;;;;;14.28;100.00;103246.78;4935752;29;20326;-70
2022/03/25 09:45:04;;;;;;;;;;;;;;;14.71;100.00;103236.94;4930657;29;19930;-70
2022/03/25 09:47:32;;;;;;;;;;;;;;;14.87;100.00;103238.38;4941402;28;19930;-71
2022/03/25 09:49:58;;;;;;;;;;;;;;;15.46;100.00;103241.47;4956136;28;19990;-72
2022/03/25 09:52:25;;;;;;;;;;;;;;;15.50;100.00;103243.13;4938908;29;20376;-72
2022/03/25 09:54:51;;;;;;;;;;;;;;;16.26;100.00;103234.84;4956186;29;19966;-72
2022/03/25 09:57:17;;;;;;;;;;;;;;;16.08;100.00;103236.22;4935039;28;19930;-72
2022/03/25 09:59:42;;;;;;;;;;;;;;;15.82;100.00;103236.03;4957756;28;20430;-72
2022/03/25 10:02:08;;;;;;;;;;;;;;;16.36;100.00;103242.56;4958243;28;19982;-71
2022/03/25 10:04:43;;;;;;;;;;;;;;;15.92;100.00;103239.34;4963836;28;20372;-72
2022/03/25 10:07:27;;;;;;;;;;;;;;;16.25;100.00;103241.97;4965529;28;19977;-72
2022/03/25 10:10:22;;;;;;;;;;;;;;;15.67;100.00;103243.59;4925744;29;20013;-72
2022/03/25 10:12:48;;;;;;;;;;;;;;;16.12;100.00;103255.78;4949808;28;19929;-72
2022/03/25 10:15:15;;;;;;;;;;;;;;;16.64;100.00;103248.91;4938289;29;19974;-72
2022/03/25 10:17:54;;;;;;;;;;;;;;;16.65;100.00;103242.63;4938144;29;20010;-72
2022/03/25 10:20:22;;;;;;;;;;;;;;;17.51;100.00;103249.75;4932504;29;19933;-72
2022/03/25 10:23:07;;;;;;;;;;;;;;;16.97;100.00;103248.81;4941742;28;19966;-72
2022/03/25 10:25:33;;;;;;;;;;;;;;;17.54;100.00;103255.91;4949890;28;19926;-72
2022/03/25 10:27:59;;;;;;;;;;;;;;;17.07;100.00;103242.22;4938438;29;19930;-72
2022/03/25 10:30:33;;;;;;;;;;;;;;;17.31;100.00;103242.31;4936281;29;19919;-72
2022/03/25 10:33:06;;;;;;;;;;;;;;;18.15;100.00;103249.28;4953587;28;19974;-72
2022/03/25 10:35:31;;;;;;;;;;;;;;;18.25;100.00;103248.91;4952680;28;19929;-72
2022/03/25 10:37:58;;;;;;;;;;;;;;;17.37;100.00;103244.81;4953275;28;20387;-71
2022/03/25 10:40:23;;;;;;;;;;;;;;;18.86;100.00;103236.69;4945937;28;19929;-72
2022/03/25 10:43:08;;;;;;;;;;;;;;;19.31;100.00;103248.38;4952060;28;19927;-70
2022/03/25 10:45:39;;;;;;;;;;;;;;;19.50;100.00;103243.09;4952328;28;19919;-69
2022/03/25 10:48:12;;;;;;;;;;;;;;;18.29;100.00;103239.75;4943152;28;19961;-72
2022/03/25 10:50:56;;;;;;;;;;;;;;;19.34;100.00;103247.38;4956672;28;19958;-71
2022/03/25 10:53:21;;;;;;;;;;;;;;;19.73;100.00;103246.56;4937528;29;19918;-71
2022/03/25 10:55:55;;;;;;;;;;;;;;;19.81;100.00;103248.94;4963033;28;19922;-70
2022/03/25 10:58:20;;;;;;;;;;;;;;;21.49;100.00;103250.94;4974103;28;19966;-71
2022/03/25 11:00:45;;;;;;;;;;;;;;;20.20;100.00;103249.91;4959658;28;19920;-71
2022/03/25 11:03:14;;;;;;;;;;;;;;;19.48;100.00;103251.25;4961893;28;19933;-70
2022/03/25 11:05:39;;;;;;;;;;;;;;;20.14;100.00;103244.78;4954885;28;19926;-71
2022/03/25 11:08:05;;;;;;;;;;;;;;;19.98;100.00;103240.97;4954334;28;19918;-70
2022/03/25 11:10:30;;;;;;;;;;;;;;;20.50;100.00;103247.66;4937910;29;19972;-71
2022/03/25 11:12:55;;;;;;;;;;;;;;;20.63;100.00;103238.91;4935645;29;19922;-70
2022/03/25 11:15:21;;;;;;;;;;;;;;;20.94;100.00;103228.41;4941856;28;20392;-71
2022/03/25 11:17:46;;;;;;;;;;;;;;;21.33;100.00;103240.97;4949179;28;19961;-70
2022/03/25 11:20:13;;;;;;;;;;;;;;;22.97;100.00;103240.25;4937375;29;19973;-70
2022/03/25 11:22:48;;;;;;;;;;;;;;;21.71;100.00;103245.31;4932969;29;19986;-72
2022/03/25 11:25:14;;;;;;;;;;;;;;;21.95;100.00;103244.94;4923310;29;20017;-71
2022/03/25 11:27:44;;;;;;;;;;;;;;;22.37;100.00;103248.09;4937703;28;20411;-72
2022/03/25 11:30:10;;;;;;;;;;;;;;;22.80;100.00;103233.09;4958913;28;19926;-72
2022/03/25 11:32:53;;;;;;;;;;;;;;;23.15;100.00;103239.22;4967428;28;19928;-71
2022/03/25 11:35:20;;;;;;;;;;;;;;;24.58;95.06;103244.94;4951950;28;19953;-71
2022/03/25 11:37:45;;;;;;;;;;;;;;;24.04;100.00;103246.53;4939206;28;19954;-70
2022/03/25 11:40:18;;;;;;;;;;;;;;;24.06;100.00;103246.44;4938826;28;19990;-71
2022/03/25 11:42:50;;;;;;;;;;;;;;;25.17;95.61;103241.97;4946799;28;19941;-71
2022/03/25 11:45:22;;;;;;;;;;;;;;;23.96;98.76;103248.84;4952514;28;19934;-70
2022/03/25 11:47:56;;;;;;;;;;;;;;;24.20;99.62;103237.44;4947654;28;19918;-70
2022/03/25 11:50:25;;;;;;;;;;;;;;;23.95;100.00;103238.91;4944894;28;19923;-70
2022/03/25 11:52:50;;;;;;;;;;;;;;;23.74;98.27;103242.03;4947053;28;19923;-70
2022/03/25 11:55:15;;;;;;;;;;;;;;;25.29;97.21;103235.69;4959953;28;20384;-70
2022/03/25 11:57:41;;;;;;;;;;;;;;;26.69;90.60;103242.22;4933571;28;19933;-71
2022/03/25 12:00:11;;;;;;;;;;;;;;;26.58;87.95;103242.09;4957573;28;19997;-70
2022/03/25 12:02:37;;;;;;;;;;;;;;;26.59;87.79;103243.84;4940878;29;20344;-70
2022/03/25 12:05:21;;;;;;;;;;;;;;;27.23;83.88;103239.97;4957061;29;19926;-71
2022/03/25 12:08:05;;;;;;;;;;;;;;;27.35;71.72;103236.38;4958365;28;19919;-70
2022/03/25 12:10:43;;;;;;;;;;;;;;;28.30;77.77;103234.38;4941181;28;20387;-70
2022/03/25 12:13:09;;;;;;;;;;;;;;;28.65;67.97;103232.41;4938728;28;19969;-70
2022/03/25 12:15:44;;;;;;;;;;;;;;;29.45;66.71;103234.78;4944098;28;19983;-70
2022/03/25 12:18:27;;;;;;;;;;;;;;;29.69;59.06;103227.25;4942866;28;19965;-70
2022/03/25 12:20:53;;;;;;;;;;;;;;;28.98;70.12;103221.44;4946383;28;19919;-71
2022/03/25 12:23:18;;;;;;;;;;;;;;;29.45;63.20;103229.31;4949822;28;20025;-71
2022/03/25 12:25:44;;;;;;;;;;;;;;;30.06;61.11;103226.78;4946148;28;19918;-70
2022/03/25 12:28:09;;;;;;;;;;;;;;;29.80;63.63;103229.06;4940922;28;19962;-70
2022/03/25 12:30:38;;;;;;;;;;;;;;;30.22;62.39;103222.63;4923028;29;19969;-71
2022/03/25 12:33:08;;;;;;;;;;;;;;;30.23;66.97;103221.59;4941547;28;20021;-71
2022/03/25 12:35:35;;;;;;;;;;;;;;;29.25;67.67;103215.56;4962339;28;19926;-71
2022/03/25 12:38:11;;;;;;;;;;;;;;;29.68;65.69;103222.78;4975865;28;19918;-71
2022/03/25 12:40:36;;;;;;;;;;;;;;;30.55;58.07;103216.00;4977869;28;19918;-71
2022/03/25 12:43:08;;;;;;;;;;;;;;;28.64;67.49;103217.00;4977581;28;19918;-71
2022/03/25 12:45:39;;;;;;;;;;;;;;;30.45;63.47;103207.72;4977502;28;19922;-70
2022/03/25 12:48:09;;;;;;;;;;;;;;;29.29;65.16;103211.59;4958937;28;19945;-71
2022/03/25 12:50:34;;;;;;;;;;;;;;;28.82;68.09;103203.69;4959154;28;19918;-71
2022/03/25 12:53:00;;;;;;;;;;;;;;;30.46;61.47;103208.59;4959387;28;19922;-71
2022/03/25 12:55:26;;;;;;;;;;;;;;;30.44;66.44;103207.88;4976575;28;19918;-71
2022/03/25 12:57:51;;;;;;;;;;;;;;;31.54;59.58;103203.13;4976589;28;19925;-71
2022/03/25 13:00:16;;;;;;;;;;;;;;;31.66;55.66;103204.72;4959142;28;19940;-71
2022/03/25 13:02:43;;;;;;;;;;;;;;;31.80;56.09;103207.88;4976461;28;19969;-70
2022/03/25 13:05:11;;;;;;;;;;;;;;;31.62;57.00;103212.38;4976394;28;20080;-71
2022/03/25 13:07:37;;;;;;;;;;;;;;;29.91;60.14;103209.81;4970187;28;20014;-71
2022/03/25 13:10:03;;;;;;;;;;;;;;;30.51;55.22;103209.06;4956713;28;20439;-71
2022/03/25 13:12:29;;;;;;;;;;;;;;;31.03;59.43;103206.94;4956838;29;19922;-71
2022/03/25 13:14:55;;;;;;;;;;;;;;;31.20;57.89;103205.41;4957097;29;19919;-71
2022/03/25 13:17:27;;;;;;;;;;;;;;;30.84;56.09;103209.63;4956859;28;19925;-69
2022/03/25 13:19:55;;;;;;;;;;;;;;;32.80;50.57;103206.31;4957102;28;19923;-71
2022/03/25 13:22:21;;;;;;;;;;;;;;;30.96;59.51;103197.56;4956898;28;19923;-71
2022/03/25 13:24:56;;;;;;;;;;;;;;;31.33;55.24;103194.16;4956999;28;20299;-71
2022/03/25 13:27:22;;;;;;;;;;;;;;;30.56;58.01;103193.03;4956918;29;19919;-69
2022/03/25 13:29:48;;;;;;;;;;;;;;;30.48;60.85;103192.84;4939651;29;19919;-69
2022/03/25 13:32:29;;;;;;;;;;;;;;;30.15;53.90;103193.09;4939227;29;20021;-69
2022/03/25 13:35:11;;;;;;;;;;;;;;;29.42;66.98;103187.66;4956711;28;19977;-70
2022/03/25 13:37:37;;;;;;;;;;;;;;;30.67;53.94;103179.22;4956230;28;19941;-70
2022/03/25 13:40:02;;;;;;;;;;;;;;;29.51;60.76;103182.25;4948766;28;20363;-70
2022/03/25 13:42:35;;;;;;;;;;;;;;;29.05;67.33;103176.16;4963735;28;19922;-69
2022/03/25 13:45:10;;;;;;;;;;;;;;;28.44;75.75;103168.53;4956269;29;19926;-69
2022/03/25 13:47:36;;;;;;;;;;;;;;;28.45;72.49;103172.97;4952425;28;20409;-70
2022/03/25 13:50:17;;;;;;;;;;;;;;;27.65;80.82;103170.34;4975189;28;19918;-70
2022/03/25 13:52:52;;;;;;;;;;;;;;;26.59;78.10;103172.94;4975568;28;20418;-70
2022/03/25 13:55:18;;;;;;;;;;;;;;;27.36;77.56;103167.16;4958847;28;19926;-70
2022/03/25 13:57:53;;;;;;;;;;;;;;;27.43;79.87;103159.34;4956067;29;19919;-70
2022/03/25 14:00:27;;;;;;;;;;;;;;;27.47;79.59;103169.91;4947840;28;19926;-70
2022/03/25 14:02:53;;;;;;;;;;;;;;;27.29;77.33;103163.16;4948190;28;19962;-70
2022/03/25 14:05:25;;;;;;;;;;;;;;;26.75;79.74;103156.34;4936631;29;19983;-70
2022/03/25 14:07:50;;;;;;;;;;;;;;;26.20;90.78;103162.22;4932336;28;19922;-70
2022/03/25 14:10:15;;;;;;;;;;;;;;;26.15;91.32;103149.91;4942052;28;19922;-70